Station: Mount Bundey South (Defence)  

  Atmospheric Gas Attenuation - ITU Rec 676-11   ----------------- dB/100km -----------------
Date Time Temp RH % AH g/m3 Dew Point Wind Direction Speed kph Gust kph Barometer mB Rainfall Since 9am 24GHz 47GHz 76GHz 122GHz 134GHz 241GHz
06/09 23:20 26.8 59 15.02 18.1 6 9 1016.7 0 32.4 32.3 58.2 153.5 163.0 565.7
06/09 23:10 26.8 60 15.27 18.4 4 6 1016.6 0 32.9 32.7 59.2 156.3 166.4 577.5
06/09 23:00 27 59 15.19 18.3 4 7 1016.5 0 32.7 32.5 58.7 155.0 164.8 572.2
06/09 22:50 27.1 60 15.53 18.7 4 7 1016.5 0 33.4 33.1 60.0 158.6 169.2 587.6
06/09 22:40 27.1 61 15.79 18.9 4 6 1016.5 0 34.0 33.5 61.1 161.5 172.8 600.1
06/09 22:30 27.1 61 15.79 18.9 2 6 1016.5 0 34.0 33.5 61.1 161.5 172.8 600.1
06/09 22:20 27.2 60 15.61 18.8 2 6 1016.5 0 33.6 33.2 60.3 159.3 170.1 590.7
06/09 22:10 27.3 60 15.7 18.9 2 6 1016.4 0 33.8 33.3 60.6 160.1 171.1 594.2
06/09 22:00 27.4 60 15.79 18.9 2 6 1016.4 0 33.9 33.4 60.9 160.9 172.1 597.7
06/09 21:50 27.6 59 15.7 18.9 2 7 1016.4 0 33.7 33.1 60.4 159.4 170.5 591.9
06/09 21:40 27.8 58 15.6 18.8 4 7 1016.3 0 33.5 32.9 59.8 157.9 168.6 585.6
06/09 21:30 28 57 15.5 18.7 6 9 1016.2 0 33.3 32.7 59.2 156.4 166.8 579.4
06/09 21:20 28.1 57 15.59 18.8 6 9 1016.1 0 33.5 32.8 59.5 157.2 167.8 582.8
06/09 21:10 28.3 57 15.76 19 6 11 1016.1 0 33.8 33.0 60.1 158.6 169.7 589.3
06/09 21:00 28.4 56 15.57 18.8 6 11 1015.8 0 33.4 32.6 59.2 156.3 166.9 579.5
06/09 20:50 28.6 56 15.74 19 7 13 1015.6 0 33.7 32.8 59.7 157.8 168.7 585.9
06/09 20:40 28.9 55 15.71 18.9 7 15 1015.5 0 33.6 32.6 59.4 156.8 167.6 582.2
06/09 20:30 29.1 54 15.6 18.8 7 13 1015.3 0 33.4 32.4 58.8 155.2 165.7 575.5
06/09 20:20 29.3 55 16.06 19.3 7 15 1015.1 0 34.3 33.1 60.5 159.8 171.4 595.5
06/09 20:10 29.8 55 16.5 19.8 7 13 1015 0 35.2 33.6 61.9 163.6 176.2 612.2
06/09 20:00 30 54 16.38 19.7 7 13 1014.8 0 35.0 33.3 61.2 161.8 174.1 605.0
06/09 19:50 30.4 53 16.43 19.7 6 11 1014.6 0 35.0 33.2 61.1 161.5 173.8 604.1
06/09 19:40 30.7 52 16.38 19.7 6 11 1014.5 0 34.9 33.0 60.7 160.3 172.5 599.4
06/09 19:30 31 50 16.01 19.4 6 15 1014.2 0 34.1 32.3 58.9 155.7 166.9 580.0
06/09 19:20 31.4 49 16.03 19.4 6 13 1014.2 0 34.1 32.2 58.7 155.1 166.3 578.0
06/09 19:10 31.7 48 15.95 19.3 6 11 1013.9 0 33.9 31.9 58.2 153.7 164.6 572.0
06/09 19:00 32.3 44 15.1 18.5 4 11 1013.8 0 32.1 30.4 54.4 143.7 152.5 530.0
06/09 18:50 32.8 40 14.09 17.4 2 7 1013.6 0 30.0 28.7 50.3 132.7 139.1 483.2
06/09 18:40 33.5 34 12.43 15.5 2 7 1013.4 0 26.5 26.0 43.9 115.7 118.4 410.8
06/09 18:30 34.1 28 10.57 13 4 7 1013.2 0 22.7 23.3 37.3 98.1 96.9 335.7
06/09 18:20 34.5 27 10.4 12.8 4 9 1013.1 0 22.3 23.0 36.6 96.2 94.6 327.7
06/09 18:10 34.8 27 10.57 13 4 9 1013 0 22.6 23.1 37.0 97.3 96.1 332.8
06/09 18:00 34.9 26 10.23 12.5 7 13 1012.9 0 21.9 22.7 35.8 94.2 92.4 319.8
06/09 17:50 35.2 26 10.39 12.8 4 7 1012.8 0 22.3 22.8 36.2 95.2 93.7 324.5
06/09 17:40 35.1 26 10.34 12.7 6 9 1012.9 0 22.2 22.8 36.1 94.9 93.3 323.1
06/09 17:30 35 26 10.28 12.6 6 9 1012.8 0 22.0 22.7 36.0 94.5 92.8 321.3
06/09 17:20 35.2 25 9.99 12.2 7 11 1012.7 0 21.4 22.3 34.9 91.8 89.5 309.8
06/09 17:10 36 24 10 12.3 4 9 1012.6 0 21.4 22.1 34.6 91.0 88.7 307.2
06/09 17:00 35.6 25 10.2 12.5 4 9 1012.6 0 21.9 22.4 35.4 93.2 91.3 316.0
06/09 16:50 36 24 10 12.3 2 9 1012.6 0 21.4 22.1 34.6 91.0 88.7 307.2
06/09 16:40 36.1 24 10.05 12.3 7 13 1012.5 0 21.5 22.1 34.7 91.3 89.1 308.6
06/09 16:30 36.4 24 10.21 12.6 9 15 1012.5 0 21.8 22.3 35.1 92.3 90.5 313.3
06/09 16:20 36.6 24 10.31 12.8 11 19 1012.5 0 22.0 22.3 35.4 93.0 91.3 316.2
06/09 16:10 36.6 24 10.31 12.8 4 13 1012.6 0 22.0 22.3 35.4 93.0 91.3 316.2
06/09 16:00 36.7 25 10.8 13.5 4 7 1012.5 0 23.0 22.9 36.9 97.0 96.3 333.6
06/09 15:50 36.9 25 10.91 13.6 6 13 1012.6 0 23.2 23.0 37.1 97.7 97.2 336.9
06/09 15:40 36.2 26 10.94 13.6 4 26 1012.5 0 23.3 23.3 37.5 98.8 98.3 340.8
06/09 15:30 35.9 26 10.78 13.4 6 13 1012.7 0 23.0 23.1 37.2 97.8 97.0 336.1
06/09 15:20 35.6 27 11.02 13.7 4 15 1012.8 0 23.5 23.5 38.1 100.2 99.9 346.3
06/09 15:10 34.9 28 11.02 13.7 9 19 1013 0 23.6 23.7 38.4 101.1 100.8 349.3
06/09 15:00 35.3 29 11.65 14.6 6 13 1013 0 24.8 24.4 40.3 106.1 107.1 371.5
06/09 14:50 35.4 29 11.71 14.6 4 9 1013.1 0 24.9 24.5 40.4 106.5 107.6 373.4
06/09 14:40 35 30 11.87 14.8 7 13 1013.3 0 25.3 24.8 41.2 108.5 110.0 381.4
06/09 14:30 35.5 29 11.77 14.7 7 17 1013.4 0 25.1 24.6 40.6 107.0 108.2 375.3
06/09 14:20 35.2 29 11.59 14.5 11 19 1013.6 0 24.7 24.4 40.2 105.8 106.6 369.9
06/09 14:10 36 30 12.5 15.7 6 13 1013.7 0 26.5 25.4 42.8 112.9 115.6 401.2
06/09 14:00 35.7 30 12.31 15.4 6 17 1013.9 0 26.1 25.3 42.3 111.6 113.9 395.4
06/09 13:50 35.4 30 12.12 15.2 6 15 1014.2 0 25.8 25.1 41.9 110.3 112.3 389.5
06/09 13:40 35.3 31 12.45 15.6 9 19 1014.4 0 26.5 25.6 43.0 113.5 116.1 402.9
06/09 13:30 35.1 32 12.72 15.9 6 17 1014.5 0 27.0 26.0 44.1 116.2 119.4 414.6
06/09 13:20 34.5 32 12.33 15.4 9 19 1014.8 0 26.3 25.7 43.1 113.5 115.9 402.3
06/09 13:10 34.7 33 12.85 16.1 9 17 1014.9 0 27.3 26.3 44.8 118.0 121.5 421.9
06/09 13:00 34.6 33 12.78 16 4 15 1015.2 0 27.2 26.3 44.6 117.6 120.9 419.8
06/09 12:50 34.3 35 13.35 16.6 4 13 1015.4 0 28.4 27.2 46.8 123.4 128.0 444.4
06/09 12:40 33.6 36 13.23 16.5 7 17 1015.7 0 28.2 27.2 46.8 123.3 127.7 443.4
06/09 12:30 33.9 36 13.44 16.7 6 17 1016 0 28.6 27.5 47.3 124.9 129.7 450.5
06/09 12:20 33.2 39 14.04 17.4 9 15 1016.2 0 29.9 28.6 50.0 131.8 138.1 479.6
06/09 12:10 32.6 40 13.95 17.2 2 7 1016.3 0 29.7 28.6 50.0 131.9 138.0 479.4
06/09 12:00 31.9 44 14.78 18.1 4 7 1016.6 0 31.5 30.1 53.6 141.5 149.6 519.7
06/09 11:50 32.1 45 15.28 18.7 6 11 1016.8 0 32.5 30.8 55.4 146.3 155.5 540.4
06/09 11:40 33 46 16.38 19.8 7 15 1017 0 34.7 32.3 59.1 156.1 167.8 583.2
06/09 11:30 32.5 48 16.65 20.1 6 15 1017.2 0 35.3 32.9 60.5 159.9 172.4 599.3
06/09 11:20 31.7 50 16.62 20 6 11 1017.4 0 35.3 33.2 61.0 161.3 173.8 604.1
06/09 11:10 31.7 50 16.62 20 6 11 1017.7 0 35.3 33.2 61.0 161.3 173.8 604.3
06/09 11:00 31.4 52 17.01 20.4 4 7 1017.9 0 36.1 33.9 62.9 166.2 179.8 624.8
06/09 10:50 31.2 53 17.15 20.5 4 9 1018.1 0 36.4 34.2 63.6 168.2 182.1 633.1
06/09 10:40 31.2 53 17.15 20.5 4 7 1018.2 0 36.4 34.3 63.6 168.2 182.1 633.1
06/09 10:30 30.5 55 17.14 20.4 4 15 1018.3 0 36.5 34.5 64.2 169.6 183.7 638.4
06/09 10:20 30.4 55 17.05 20.3 6 9 1018.4 0 36.3 34.4 63.9 168.8 182.7 635.0
06/09 10:10 30.5 55 17.14 20.4 4 9 1018.5 0 36.5 34.5 64.2 169.6 183.7 638.5
06/09 10:00 29.9 57 17.2 20.5 4 11 1018.6 0 36.7 34.9 64.9 171.6 186.0 646.4
06/09 09:50 29.7 58 17.31 20.5 2 6 1018.6 0 36.9 35.1 65.6 173.3 188.0 653.3
06/09 09:40 29 60 17.24 20.4 4 9 1018.7 0 36.8 35.3 65.9 174.1 188.8 655.9
06/09 09:30 29.1 60 17.33 20.5 4 9 1018.7 0 37.0 35.4 66.2 174.9 189.8 659.4
06/09 09:20 28.4 63 17.51 20.7 6 9 1018.7 0 37.4 36.0 67.5 178.5 194.1 674.3
06/09 09:10 28.6 63 17.71 20.9 4 7 1018.6 0 37.8 36.3 68.2 180.4 196.4 682.4
06/09 09:00 27.7 66 17.66 20.8 7 11 1018.6 0 37.8 36.6 68.8 181.9 198.0 687.9
06/09 08:50 27.7 67 17.92 21 4 9 1018.7 0 38.4 37.1 70.0 185.0 201.8 701.0
06/09 08:40 27.8 68 18.29 21.3 4 11 1018.7 0 39.1 37.7 71.5 189.1 206.9 718.8
06/09 08:30 27.2 71 18.48 21.5 4 9 1018.7 0 39.6 38.3 72.9 192.9 211.3 734.3
06/09 08:20 26.7 72 18.23 21.2 4 9 1018.7 0 39.1 38.1 72.3 191.1 209.0 726.2
06/09 08:10 26.4 74 18.42 21.4 4 7 1018.6 0 39.6 38.5 73.4 194.2 212.7 738.8
06/09 08:00 26.2 74 18.22 21.2 4 6 1018.5 0 39.1 38.3 72.7 192.2 210.2 730.3
06/09 07:50 25.9 75 18.16 21.1 0 0 1018.4 0 39.1 38.3 72.7 192.2 210.2 730.0
06/09 07:40 25.3 77 18.03 21 0 4 1018.3 0 38.8 38.3 72.7 192.1 209.9 728.9
06/09 07:30 25.1 79 18.29 21.2 0 4 1018.2 0 39.4 38.9 74.1 195.8 214.4 744.5
06/09 07:20 24.1 83 18.16 21 0 0 1018.1 0 39.2 39.1 74.4 196.8 215.2 747.4
06/09 07:10 23.4 84 17.66 20.5 0 0 1018 0 38.2 38.5 72.8 192.3 209.5 727.5
06/09 07:00 23.2 84 17.46 20.3 0 0 1017.8 0 37.8 38.2 72.0 190.3 207.0 718.6
06/09 06:50 23.3 83 17.35 20.2 0 0 1017.7 0 37.6 37.9 71.4 188.7 205.0 711.8

Last Refresh: 06-Sep-2026 23:27:49

Bureau of Meteorology